Terminal Aerodrome Forecast
Issued by NWS Shreveport, LA

Home | Current Version | Previous Version | Text Only | Print | Product List | Glossary On
Versions: 1 2 3 4 5 6 7 8 9 10 11 12 13 14 15 16
414
FTUS44 KSHV 231156
TAFELD
TAF
KELD 231156Z 2312/2412 16006KT P6SM SCT250
     FM231500 24004KT P6SM SCT050 SCT250
     FM231700 20004KT P6SM VCTS SCT050CB BKN250
     FM240200 20004KT P6SM VCSH SCT045 SCT250
     FM240400 19003KT P6SM SCT040 SCT250
     FM240900 24003KT P6SM BKN250=

USA.gov is the U.S. government's official web portal to all federal, state and local government web resources and services.